Latest Weather Observations for Low Rocky Point

IDT60801

Issued at 8:02 am EDT Wednesday 28 January 2015 (issued every 30 minutes, with the page automatically refreshed every 10 minutes)

About weather observations | Map of weather stations | Latest weather observations for TAS | Other Formats
Station Details ID: 097080 Name: LOW ROCKY POINT Lat: -42.98 Lon: 145.50 Height: 34.0 m
Data from the previous 72 hours. | See also: Recent months at Low Rocky Point
Date/Time
EDT
Temp
°C
App
Temp
°C
Dew
Point
Rel
Hum
%
Delta-T
°C
Wind Press
QNH
hPa
Press
MSL
hPa
Rain
since 9 am
mm
Dir
 
Spd
km/h
Gust
km/h
Spd
kts
Gust
kts
28/08:00am 12.6 7.6 7.9 73 2.3 ESE 24 32 13 17 1024.2 1024.1 0.2
28/07:30am 12.4 7.3 7.7 73 2.3 SE 24 30 13 16 1023.9 1023.8 0.2
28/07:00am 12.1 5.8 7.6 74 2.2 SE 30 39 16 21 1023.4 1023.4 0.2
28/06:30am 11.7 6.3 7.8 77 1.9 SE 26 33 14 18 1023.0 1022.9 0.2
28/06:00am 11.2 6.4 7.5 78 1.8 ESE 22 28 12 15 1022.8 1022.7 0.2
28/05:30am 11.4 5.9 7.5 77 1.9 ESE 26 37 14 20 1022.5 1022.4 0.2
28/05:00am 11.2 6.8 7.3 77 1.9 SE 20 26 11 14 1022.4 1022.4 0.2
28/04:30am 11.4 5.8 7.3 76 2.0 SE 26 33 14 18 1022.2 1022.1 0.2
28/04:00am 11.6 6.4 7.3 75 2.1 SE 24 32 13 17 1022.4 1022.4 0.2
28/03:30am 11.1 6.1 6.6 74 2.1 ESE 22 28 12 15 1022.3 1022.2 0.2
28/03:00am 11.4 5.7 6.7 73 2.2 ESE 26 33 14 18 1022.5 1022.5 0.2
28/02:30am 11.8 5.8 7.1 73 2.3 SE 28 37 15 20 1022.3 1022.2 0.2
28/02:00am 11.8 5.4 7.1 73 2.2 SE 30 37 16 20 1022.5 1022.5 0.2
28/01:30am 11.9 5.6 7.2 73 2.3 SE 30 39 16 21 1022.4 1022.3 0.2
28/01:00am 12.3 5.6 7.4 72 2.4 SE 32 41 17 22 1022.3 1022.3 0.2
28/12:00am 12.4 5.7 7.5 72 2.4 SSE 32 43 17 23 1022.2 1022.1 0.2
 
Date/Time
EDT
Temp
°C
App
Temp
°C
Dew
Point
Rel
Hum
%
Delta-T
°C
Wind Press
QNH
hPa
Press
MSL
hPa
Rain
since 9 am
mm
Dir
 
Spd
km/h
Gust
km/h
Spd
kts
Gust
kts
27/11:30pm 12.2 5.8 7.1 71 2.5 SSE 30 37 16 20 1022.2 1022.1 0.2
27/11:00pm 12.1 6.0 6.8 70 2.5 SSE 28 37 15 20 1022.2 1022.2 0.2
27/10:30pm 12.5 6.6 7.6 72 2.4 SSE 28 37 15 20 1022.3 1022.2 0.2
27/10:00pm 12.5 6.3 8.0 74 2.2 SSE 30 37 16 20 1022.2 1022.2 0.2
27/09:30pm 12.4 6.6 7.9 74 2.2 SSE 28 35 15 19 1021.7 1021.6 0.2
27/09:00pm 12.3 6.9 7.8 74 2.2 SSE 26 33 14 18 1021.5 1021.5 0.2
27/08:30pm 12.5 7.0 7.6 72 2.4 SSE 26 35 14 19 1021.2 1021.1 0.2
27/08:00pm 13.0 6.7 7.5 69 2.7 SSE 30 37 16 20 1021.0 1020.9 0.2
27/07:30pm 13.8 7.6 8.0 68 2.9 SSE 30 37 16 20 1020.7 1020.6 0.2
27/07:00pm 14.6 8.2 8.5 67 3.1 SSE 32 41 17 22 1020.5 1020.5 0.2
27/06:30pm 15.2 9.7 9.1 67 3.1 S 28 35 15 19 1020.3 1020.2 0.2
27/06:00pm 15.6 10.5 9.1 65 3.3 SSE 26 32 14 17 1020.1 1020.0 0.2
27/05:30pm 17.0 12.9 10.1 64 3.6 S 22 33 12 18 1020.1 1020.0 0.2
27/05:00pm 16.5 12.9 9.7 64 3.5 S 19 24 10 13 1019.9 1019.9 0.2
27/04:30pm 16.6 12.9 10.2 66 3.4 S 20 28 11 15 1019.8 1019.7 0.2
27/04:00pm 17.5 14.0 10.1 62 3.9 S 19 24 10 13 1019.7 1019.7 0.2
27/03:30pm 16.7 13.1 9.9 64 3.6 SSW 19 24 10 13 1019.5 1019.4 0.2
27/03:00pm 17.8 14.4 10.7 63 3.8 SSW 19 24 10 13 1019.4 1019.4 0.2
27/02:30pm 17.9 14.6 11.5 66 3.5 SW 20 28 11 15 1019.3 1019.2 0.2
27/02:00pm 17.3 14.2 10.2 63 3.8 SW 17 24 9 13 1019.3 1019.3 0.2
27/01:30pm 16.7 13.5 9.9 64 3.6 W 17 20 9 11 1019.4 1019.3 0.2
27/01:00pm 16.3 13.6 10.4 68 3.1 WSW 15 20 8 11 1019.4 1019.4 0.2
27/12:30pm 16.4 13.8 10.7 69 3.0 WSW 15 20 8 11 1019.3 1019.2 0.2
27/12:00pm 15.8 13.5 10.3 70 2.9 WSW 13 17 7 9 1019.2 1019.2 0.2
27/11:30am 15.3 12.6 10.3 72 2.6 WSW 15 20 8 11 1019.1 1019.0 0.2
27/11:00am 15.5 13.0 12.3 81 1.7 WSW 17 24 9 13 1019.1 1019.1 0.2
27/10:30am 12.4 10.8 10.1 86 1.2 NW 9 11 5 6 1019.1 1019.0 0.2
27/10:00am 12.0 9.5 9.6 85 1.2 NNW 13 20 7 11 1018.9 1018.9 0.2
27/09:30am 12.3 11.1 9.5 83 1.4 NE 6 11 3 6 1018.7 1018.6 0.2
27/09:00am 13.0 11.9 9.8 81 1.6 WNW 6 7 3 4 1018.6 1018.6 0.6
27/08:30am 12.7 12.7 9.7 82 1.5 CALM 0 6 0 3 1018.3 1018.2 0.6
27/08:00am 12.1 9.8 8.9 81 1.6 W 11 15 6 8 1018.1 1018.1 0.6
27/07:30am 12.5 9.9 9.5 82 1.5 W 13 19 7 10 1017.8 1017.7 0.6
27/07:00am 11.8 8.4 9.2 84 1.3 WNW 17 20 9 11 1017.4 1017.4 0.6
27/06:30am 11.2 7.3 9.5 89 0.9 WNW 20 24 11 13 1017.2 1017.1 0.6
27/06:00am 10.3 8.7 8.9 91 0.7 E 7 13 4 7 1017.2 1017.2 0.6
27/05:30am 10.1 7.0 8.7 91 0.7 NNE 15 20 8 11 1016.9 1016.8 0.4
27/05:00am 10.2 6.7 8.6 90 0.8 NNE 17 20 9 11 1016.9 1016.9 0.4
27/04:30am 10.3 6.8 8.7 90 0.8 NNE 17 22 9 12 1016.7 1016.6 0.4
27/04:00am 10.3 6.4 8.7 90 0.8 NNE 19 22 10 12 1016.9 1016.9 0.4
27/03:30am 10.3 6.8 8.6 89 0.8 NNE 17 22 9 12 1016.9 1016.8 0.4
27/03:00am 10.4 6.5 8.5 88 0.9 NNE 19 24 10 13 1017.2 1017.2 0.4
27/02:30am 10.6 7.4 8.4 86 1.1 NNE 15 20 8 11 1017.5 1017.4 0.4
27/02:00am 10.7 7.4 8.1 84 1.3 NNE 15 19 8 10 1017.6 1017.6 0.4
27/01:30am 10.7 8.1 7.8 82 1.4 N 11 13 6 7 1017.7 1017.6 0.2
27/01:00am 10.6 7.9 7.5 81 1.5 N 11 13 6 7 1017.8 1017.8 0.2
27/12:30am 10.4 7.3 7.1 80 1.6 N 13 17 7 9 1017.8 1017.7 0.2
27/12:00am 10.5 7.3 7.0 79 1.7 N 13 17 7 9 1017.9 1017.9 0.2
 
Date/Time
EDT
Temp
°C
App
Temp
°C
Dew
Point
Rel
Hum
%
Delta-T
°C
Wind Press
QNH
hPa
Press
MSL
hPa
Rain
since 9 am
mm
Dir
 
Spd
km/h
Gust
km/h
Spd
kts
Gust
kts
26/11:30pm 11.2 7.3 7.1 76 2.0 N 17 20 9 11 1017.9 1017.8 0.2
26/11:00pm 12.5 9.2 8.0 74 2.2 NW 15 20 8 11 1017.9 1017.9 0.2
26/10:30pm 12.5 9.5 7.8 73 2.3 W 13 17 7 9 1018.0 1017.9 0.2
26/10:00pm 12.6 9.3 7.9 73 2.3 WSW 15 19 8 10 1017.8 1017.8 0.2
26/09:30pm 12.7 9.4 8.0 73 2.3 WSW 15 20 8 11 1017.7 1017.6 0.2
26/09:00pm 13.0 8.9 7.9 71 2.5 WNW 19 22 10 12 1017.3 1017.3 0.2
26/08:30pm 13.0 8.2 7.5 69 2.7 WNW 22 26 12 14 1017.1 1017.0 0.2
26/08:00pm 13.0 7.9 7.5 69 2.7 WNW 24 30 13 16 1016.9 1016.9 0.2
26/07:30pm 13.5 8.7 7.3 66 3.0 WNW 22 30 12 16 1016.7 1016.6 0.2
26/07:00pm 13.9 8.9 7.9 67 3.0 WNW 24 30 13 16 1016.4 1016.3 0.2
26/06:30pm 13.5 8.3 7.1 65 3.1 W 24 30 13 16 1016.3 1016.2 0.2
26/06:00pm 15.4 10.1 8.4 63 3.5 W 26 32 14 17 1016.1 1016.0 0.2
26/05:30pm 15.1 9.5 7.2 59 3.9 W 26 33 14 18 1016.2 1016.1 0.2
26/05:00pm 16.0 10.1 7.7 58 4.2 W 28 35 15 19 1016.2 1016.1 0.2
26/04:30pm 15.6 10.7 8.4 62 3.6 WNW 24 33 13 18 1016.2 1016.1 0.2
26/04:00pm 15.7 11.2 8.7 63 3.6 W 22 28 12 15 1016.2 1016.1 0.2
26/03:30pm 15.3 9.5 8.1 62 3.6 WNW 28 33 15 18 1016.2 1016.1 0.2
26/03:00pm 13.7 9.6 8.5 71 2.6 WNW 20 28 11 15 1016.2 1016.1 0.2
26/02:30pm 12.6 6.7 7.3 70 2.6 WNW 28 43 15 23 1016.2 1016.1 0.2
26/02:00pm 14.7 10.4 9.3 70 2.8 WNW 22 28 12 15 1016.1 1016.0 0.0
26/01:30pm 13.1 8.3 9.0 76 2.1 W 24 30 13 16 1016.2 1016.1 0.0
26/01:00pm 12.5 5.6 6.5 67 2.9 W 32 43 17 23 1016.1 1016.0 0.0
26/12:30pm 13.5 8.3 7.3 66 3.0 W 24 44 13 24 1015.8 1015.7 0.0
26/12:28pm 13.2 6.8 7.0 66 3.0 W 30 48 16 26 1015.8 1015.7 0.0
26/12:00pm 14.8 8.3 6.6 58 4.0 W 30 35 16 19 1015.4 1015.4 0.0
26/11:30am 14.6 7.4 5.1 53 4.5 WNW 32 43 17 23 1015.1 1015.1 0.0
26/11:00am 14.5 7.0 6.1 57 4.0 W 35 44 19 24 1014.9 1014.9 0.0
26/10:30am 13.8 6.3 6.4 61 3.6 W 35 46 19 25 1014.6 1014.6 0.0
26/10:00am 13.6 7.3 7.2 65 3.1 W 30 39 16 21 1014.4 1014.4 0.0
26/09:30am 12.4 5.6 6.9 69 2.6 WSW 32 37 17 20 1014.2 1014.2 0.0
26/09:00am 12.4 6.4 6.9 69 2.6 WSW 28 39 15 21 1013.7 1013.7 2.2
26/08:30am 12.9 6.2 7.4 69 2.7 WSW 32 41 17 22 1013.0 1013.0 2.2
26/08:00am 12.0 6.9 7.7 75 2.1 WSW 24 32 13 17 1012.5 1012.5 2.2
26/07:30am 12.0 6.5 7.7 75 2.1 WSW 26 39 14 21 1011.8 1011.8 2.2
26/07:00am 12.0 5.2 7.1 72 2.4 W 32 39 17 21 1011.3 1011.3 2.2
26/06:30am 11.8 3.2 6.7 71 2.4 W 41 52 22 28 1011.0 1011.0 2.2
26/06:00am 11.2 5.7 7.5 78 1.8 WSW 26 41 14 22 1010.5 1010.5 2.2
26/05:51am 11.4 5.6 7.9 79 1.7 WSW 28 39 15 21 1010.4 1010.4 2.2
26/05:30am 10.8 3.1 6.9 77 1.9 W 37 50 20 27 1010.2 1010.2 2.2
26/05:00am 11.5 5.5 7.2 75 2.1 W 28 43 15 23 1009.7 1009.7 2.2
26/04:30am 11.3 6.0 6.6 73 2.2 WSW 24 35 13 19 1009.5 1009.5 2.2
26/04:00am 11.5 4.1 6.8 73 2.2 WSW 35 44 19 24 1009.3 1009.3 2.2
26/03:30am 11.7 4.7 7.0 73 2.3 W 33 44 18 24 1009.0 1009.0 2.2
26/03:00am 11.5 4.5 6.8 73 2.2 WSW 33 43 18 23 1008.8 1008.8 2.2
26/02:30am 11.8 5.0 7.9 77 1.9 WSW 33 54 18 29 1008.4 1008.4 2.2
26/02:28am 11.7 4.9 7.8 77 1.9 WSW 33 54 18 29 1008.3 1008.3 2.2
26/02:00am 11.0 4.4 7.9 81 1.5 W 32 39 17 21 1008.2 1008.2 2.2
26/01:30am 11.1 2.3 7.2 77 1.9 W 43 61 23 33 1007.9 1007.9 2.2
26/01:27am 11.8 3.5 7.7 76 2.0 W 41 61 22 33 1007.8 1007.8 2.2
26/01:00am 11.6 4.8 7.7 77 1.9 W 33 44 18 24 1007.5 1007.5 2.2
26/12:30am 11.3 4.1 7.6 78 1.8 W 35 46 19 25 1007.3 1007.3 2.2
26/12:00am 11.0 3.9 8.0 82 1.5 W 35 46 19 25 1006.9 1006.9 2.2
 
Date/Time
EDT
Temp
°C
App
Temp
°C
Dew
Point
Rel
Hum
%
Delta-T
°C
Wind Press
QNH
hPa
Press
MSL
hPa
Rain
since 9 am
mm
Dir
 
Spd
km/h
Gust
km/h
Spd
kts
Gust
kts
25/11:30pm 10.6 3.7 7.1 79 1.7 W 33 41 18 22 1006.9 1006.9 1.6
25/11:00pm 10.9 3.6 7.4 79 1.7 W 35 46 19 25 1006.6 1006.6 1.6
25/10:36pm 10.1 1.5 6.4 78 1.7 W 41 59 22 32 1006.6 1006.6 1.4
25/10:30pm 9.9 0.6 6.1 77 1.8 WSW 44 59 24 32 1006.7 1006.7 1.4
25/10:19pm 11.2 4.4 6.7 74 2.1 WSW 32 50 17 27 1006.2 1006.2 0.6
25/10:00pm 11.2 3.4 6.7 74 2.1 WSW 37 50 20 27 1006.1 1006.1 0.6
25/09:55pm 11.5 2.4 6.8 73 2.2 W 44 57 24 31 1006.0 1006.0 0.6
25/09:30pm 11.4 4.1 7.1 75 2.1 WNW 35 43 19 23 1005.5 1005.5 0.6
25/09:00pm 11.6 2.4 6.5 71 2.4 WNW 44 52 24 28 1005.1 1005.1 0.6
25/08:30pm 12.1 3.1 6.2 67 2.8 WNW 43 50 23 27 1004.8 1004.8 0.6
25/08:00pm 12.4 3.8 6.7 68 2.7 WNW 41 50 22 27 1004.6 1004.6 0.6
25/07:30pm 12.2 3.6 6.5 68 2.7 W 41 52 22 28 1004.3 1004.3 0.6
25/07:00pm 12.3 3.5 7.2 71 2.5 W 43 52 23 28 1003.8 1003.8 0.6
25/06:36pm 11.1 2.2 7.0 76 2.0 WNW 43 61 23 33 1003.4 1003.4 0.6
25/06:30pm 10.7 0.3 6.1 73 2.1 WNW 50 61 27 33 1003.4 1003.4 0.6
25/06:00pm 13.1 6.1 6.7 65 3.1 W 33 44 18 24 1003.1 1003.1 0.6
25/05:45pm 12.5 4.3 6.5 67 2.9 W 39 57 21 31 1003.0 1003.0 0.6
25/05:30pm 13.8 5.1 6.2 60 3.6 WNW 41 50 22 27 1002.8 1002.8 0.6
25/05:00pm 13.2 4.0 5.6 60 3.6 WNW 43 50 23 27 1002.5 1002.5 0.6
25/04:30pm 13.4 3.3 7.2 66 3.0 WNW 50 59 27 32 1002.3 1002.3 0.6
25/04:00pm 14.1 6.3 8.3 68 2.9 W 39 52 21 28 1002.0 1002.0 0.6
25/03:30pm 13.3 6.3 8.6 73 2.4 W 35 44 19 24 1001.8 1001.8 0.6
25/03:01pm 11.2 3.5 7.1 76 2.0 WNW 37 44 20 24 1001.6 1001.6 0.4
25/03:00pm 11.1 3.4 7.0 76 2.0 WNW 37 43 20 23 1001.6 1001.6 0.4
25/02:44pm 12.5 3.5 6.5 67 2.9 W 43 61 23 33 1001.4 1001.4 0.2
25/02:30pm 13.2 4.2 7.2 67 2.9 WNW 44 52 24 28 1001.3 1001.3 0.2
25/02:00pm 12.4 5.8 7.9 74 2.2 W 32 37 17 20 1001.2 1001.2 0.2
25/01:30pm 13.3 7.9 9.4 77 2.0 WNW 28 35 15 19 1001.0 1001.0 0.2
25/01:27pm 13.0 7.1 9.1 77 2.0 WNW 30 37 16 20 1001.0 1001.0 0.2
25/01:00pm 10.8 3.1 7.1 78 1.8 W 37 48 20 26 1000.8 1000.8 0.2
25/12:30pm 12.8 6.1 7.5 70 2.6 WNW 32 50 17 27 1000.6 1000.6 0.0
25/12:00pm 14.1 8.5 8.7 70 2.7 WNW 28 33 15 18 1000.4 1000.4 0.0
25/11:30am 11.3 2.4 6.8 74 2.1 WNW 43 56 23 30 1000.6 1000.6 0.0
25/11:19am 12.8 5.7 7.9 72 2.4 W 35 56 19 30 1000.4 1000.3 0.0
25/11:00am 13.2 6.5 8.1 71 2.5 WNW 33 43 18 23 1000.3 1000.3 0.0
25/10:30am 13.6 6.7 8.7 72 2.5 WNW 35 41 19 22 1000.2 1000.1 0.0
25/10:00am 13.3 5.8 8.0 70 2.6 WNW 37 43 20 23 1000.1 1000.1 0.0
25/09:30am 13.2 7.2 8.7 74 2.3 WNW 30 39 16 21 1000.2 1000.1 0.0
25/09:00am 12.2 6.2 8.7 79 1.8 WNW 30 35 16 19 1000.3 1000.3 7.0
25/08:30am 11.5 4.6 8.7 83 1.4 WNW 35 41 19 22 1000.0 999.9 7.0

Other Formats:

Comma delimited format used in spreadsheet applications
http://www.bom.gov.au/fwo/IDT60801/IDT60801.95961.axf

JavaScript Object Notation format (JSON) in row-major order
http://www.bom.gov.au/fwo/IDT60801/IDT60801.95961.json